Time;durP1;ratioP1;P1;durP2;ratioP2;P2;SDS_P1;SDS_P2;PMS_P1;PMS_P2;Temp;Humidity;BMP_temperature;BMP_pressure;BME280_temperature;BME280_humidity;BME280_pressure;Samples;Min_cycle;Max_cycle;Signal;HPM_P1;HPM_P2
2022/03/03 00:01:38;;;;;;;268.38;104.43;;;-3.50;98.00;;;;;;5115385;28;20020;-69
2022/03/03 00:04:04;;;;;;;248.05;96.72;;;-3.60;98.50;;;;;;5115249;28;20031;-71
2022/03/03 00:06:30;;;;;;;235.13;92.55;;;-3.60;99.90;;;;;;5115406;28;20034;-71
2022/03/03 00:08:56;;;;;;;270.67;102.72;;;-3.70;99.90;;;;;;5115254;28;20020;-68
2022/03/03 00:11:22;;;;;;;498.20;200.00;;;-3.70;99.90;;;;;;5113883;28;20019;-70
2022/03/03 00:13:47;;;;;;;351.50;133.07;;;-3.70;99.90;;;;;;5115039;28;20031;-68
2022/03/03 00:16:13;;;;;;;235.55;98.40;;;-3.70;99.90;;;;;;5115333;28;20048;-70
2022/03/03 00:18:39;;;;;;;220.30;89.55;;;-3.80;99.90;;;;;;5113884;28;20023;-68
2022/03/03 00:21:04;;;;;;;228.15;92.32;;;-3.90;99.90;;;;;;5115143;28;20541;-70
2022/03/03 00:23:31;;;;;;;197.50;86.82;;;-3.90;99.60;;;;;;5113746;28;20046;-70
2022/03/03 00:25:56;;;;;;;278.50;111.20;;;-4.00;99.20;;;;;;5115102;28;20024;-68
2022/03/03 00:28:22;;;;;;;236.15;91.05;;;-4.10;99.50;;;;;;5113624;28;20038;-68
2022/03/03 00:30:47;;;;;;;262.80;110.25;;;-4.20;99.90;;;;;;5114884;28;20481;-71
2022/03/03 00:33:13;;;;;;;271.27;112.75;;;-4.20;99.90;;;;;;5114876;28;20067;-71
2022/03/03 00:35:39;;;;;;;281.30;110.67;;;-4.30;99.90;;;;;;5114954;28;20047;-71
2022/03/03 00:38:05;;;;;;;297.65;115.10;;;-4.30;99.40;;;;;;5114821;28;20028;-68
2022/03/03 00:40:30;;;;;;;272.83;110.72;;;-4.30;98.90;;;;;;5113412;28;20023;-71
2022/03/03 00:42:56;;;;;;;302.17;117.88;;;-4.40;98.50;;;;;;5113304;28;20035;-70
2022/03/03 00:45:22;;;;;;;283.38;115.88;;;-4.40;98.80;;;;;;5114707;28;20019;-69
2022/03/03 00:47:48;;;;;;;287.20;117.07;;;-4.40;98.20;;;;;;5113273;28;20029;-70
2022/03/03 00:50:15;;;;;;;285.98;113.55;;;-4.50;98.70;;;;;;5114689;28;20047;-69
2022/03/03 00:52:40;;;;;;;284.70;115.30;;;-4.50;99.70;;;;;;5114333;28;20053;-71
2022/03/03 00:55:07;;;;;;;283.50;108.53;;;-4.60;99.90;;;;;;5114514;27;20023;-71
2022/03/03 00:57:33;;;;;;;250.27;103.82;;;-4.60;99.90;;;;;;5114572;28;20022;-69
2022/03/03 00:59:59;;;;;;;257.75;102.20;;;-4.70;99.40;;;;;;5114424;28;20024;-69
2022/03/03 01:02:25;;;;;;;259.52;101.47;;;-4.70;98.70;;;;;;5114043;28;20023;-69
2022/03/03 01:04:50;;;;;;;248.05;102.03;;;-4.80;97.60;;;;;;5113106;28;20027;-68
2022/03/03 01:07:16;;;;;;;246.60;101.78;;;-4.80;97.80;;;;;;5114239;28;20050;-69
2022/03/03 01:09:42;;;;;;;257.70;98.65;;;-4.90;98.10;;;;;;5114115;28;20027;-70
2022/03/03 01:12:08;;;;;;;241.95;97.97;;;-4.90;98.70;;;;;;5114127;28;20028;-69
2022/03/03 01:14:33;;;;;;;216.63;92.63;;;-5.00;99.00;;;;;;5114047;28;20044;-68
2022/03/03 01:16:59;;;;;;;239.05;93.95;;;-5.00;98.80;;;;;;5113535;28;20119;-69
2022/03/03 01:19:25;;;;;;;240.63;96.57;;;-5.00;98.60;;;;;;5113984;28;20030;-68
2022/03/03 01:21:50;;;;;;;230.47;93.70;;;-5.10;98.60;;;;;;5113960;28;20059;-70
2022/03/03 01:24:16;;;;;;;232.57;91.70;;;-5.10;98.80;;;;;;5113870;28;20016;-70
2022/03/03 01:26:43;;;;;;;207.02;87.07;;;-5.20;98.80;;;;;;5113804;27;20530;-71
2022/03/03 01:29:09;;;;;;;197.93;83.63;;;-5.20;99.20;;;;;;5113970;28;20472;-68
2022/03/03 01:31:34;;;;;;;187.03;79.60;;;-5.30;99.90;;;;;;5113845;28;20019;-69
2022/03/03 01:34:00;;;;;;;184.43;75.72;;;-5.30;99.90;;;;;;5113636;28;20031;-69
2022/03/03 01:36:26;;;;;;;186.10;74.17;;;-5.40;99.90;;;;;;5112578;28;20035;-71
2022/03/03 01:38:51;;;;;;;199.10;81.80;;;-5.40;99.70;;;;;;5113810;28;20028;-70
2022/03/03 01:41:17;;;;;;;197.32;83.80;;;-5.40;99.90;;;;;;5112423;28;20473;-71
2022/03/03 01:43:42;;;;;;;205.32;85.35;;;-5.50;99.90;;;;;;5113621;28;20462;-68
2022/03/03 01:46:08;;;;;;;217.23;90.13;;;-5.50;99.90;;;;;;5113664;28;20107;-71
2022/03/03 01:48:34;;;;;;;212.17;89.13;;;-5.50;99.90;;;;;;5113726;28;20024;-68
2022/03/03 01:50:59;;;;;;;199.47;87.63;;;-5.50;99.90;;;;;;5113718;28;20245;-70
2022/03/03 01:53:25;;;;;;;202.50;85.93;;;-5.60;99.90;;;;;;5113457;28;20028;-68
2022/03/03 01:55:51;;;;;;;237.20;95.93;;;-5.60;99.90;;;;;;5113589;28;20024;-71
2022/03/03 01:58:17;;;;;;;242.77;97.63;;;-5.70;99.90;;;;;;5113478;28;20019;-68
2022/03/03 02:00:44;;;;;;;243.57;99.47;;;-5.70;99.90;;;;;;5113462;28;20094;-69
2022/03/03 02:03:11;;;;;;;255.90;107.50;;;-5.70;99.90;;;;;;5113482;28;20077;-70
2022/03/03 02:05:37;;;;;;;242.10;96.10;;;-5.70;99.90;;;;;;5112284;28;20392;-71
2022/03/03 02:08:03;;;;;;;234.47;93.27;;;-5.80;99.90;;;;;;5112095;28;20123;-71
2022/03/03 02:10:30;;;;;;;215.43;84.50;;;-5.80;99.90;;;;;;5113537;28;20069;-69
2022/03/03 02:12:56;;;;;;;221.97;91.40;;;-5.80;99.90;;;;;;5113264;28;20115;-69
2022/03/03 02:15:22;;;;;;;238.17;94.90;;;-5.90;99.90;;;;;;5113309;28;20091;-71
2022/03/03 02:17:48;;;;;;;259.60;107.27;;;-6.00;99.90;;;;;;5112093;28;20012;-69
2022/03/03 02:20:25;;;;;;;271.20;104.63;;;-6.00;99.90;;;;;;5113302;28;20059;-70
2022/03/03 02:22:52;;;;;;;245.50;103.27;;;-5.90;99.90;;;;;;5113364;28;20024;-71
2022/03/03 02:25:18;;;;;;;242.93;102.13;;;-6.00;99.90;;;;;;5113253;28;20019;-71
2022/03/03 02:27:44;;;;;;;249.47;99.10;;;-6.00;99.90;;;;;;5114324;28;20047;-71
2022/03/03 02:30:12;;;;;;;228.43;93.63;;;-6.00;99.90;;;;;;5117180;28;20063;-69
2022/03/03 02:32:38;;;;;;;221.13;88.10;;;-6.00;99.90;;;;;;5117241;28;20019;-70
2022/03/03 02:35:04;;;;;;;209.13;88.90;;;-6.00;99.90;;;;;;5117198;28;20035;-71
2022/03/03 02:37:48;;;;;;;183.57;76.40;;;-6.10;99.90;;;;;;5117146;28;20034;-70
2022/03/03 02:40:21;;;;;;;165.53;66.63;;;-6.10;99.90;;;;;;5117182;28;20027;-71
2022/03/03 02:42:53;;;;;;;172.30;67.73;;;-6.20;99.90;;;;;;5117158;28;20020;-68
2022/03/03 02:45:20;;;;;;;160.25;64.13;;;-6.20;99.90;;;;;;5117129;28;20101;-70
2022/03/03 02:47:47;;;;;;;156.10;67.07;;;-6.20;99.90;;;;;;5116841;28;20020;-71
2022/03/03 02:50:14;;;;;;;156.40;59.77;;;-6.30;99.90;;;;;;5116868;28;20036;-70
2022/03/03 02:52:40;;;;;;;147.23;61.97;;;-6.30;99.90;;;;;;5116636;28;20019;-69
2022/03/03 02:55:07;;;;;;;145.97;59.20;;;-6.30;99.90;;;;;;5116868;28;20016;-70
2022/03/03 03:00:16;;;;;;;139.17;54.60;;;-6.30;99.90;;;;;;5117119;28;20396;-70
2022/03/03 03:02:42;;;;;;;138.50;56.87;;;-6.30;99.90;;;;;;5116699;28;20020;-70
2022/03/03 03:05:09;;;;;;;134.67;59.03;;;-6.30;99.90;;;;;;5116568;28;20076;-70
2022/03/03 03:07:35;;;;;;;142.10;58.10;;;-6.40;99.90;;;;;;5116555;28;20098;-68
2022/03/03 03:10:00;;;;;;;147.93;59.63;;;-6.40;99.90;;;;;;5116591;28;20107;-68
2022/03/03 03:12:26;;;;;;;152.40;64.13;;;-6.40;99.90;;;;;;5116474;28;20047;-70
2022/03/03 03:14:52;;;;;;;143.70;58.77;;;-6.50;99.90;;;;;;5116365;28;20465;-68
2022/03/03 03:17:17;;;;;;;125.23;56.70;;;-6.50;99.90;;;;;;5116346;28;20047;-69
2022/03/03 03:19:43;;;;;;;123.00;55.07;;;-6.50;99.90;;;;;;5116214;28;20419;-71
2022/03/03 03:22:08;;;;;;;123.83;52.43;;;-6.50;99.90;;;;;;5116220;28;20034;-69
2022/03/03 03:24:34;;;;;;;116.97;47.90;;;-6.50;99.90;;;;;;5116240;28;20396;-68
2022/03/03 03:26:59;;;;;;;113.53;48.77;;;-6.50;99.90;;;;;;5116242;28;20537;-70
2022/03/03 03:29:25;;;;;;;124.83;50.30;;;-6.50;99.90;;;;;;5114868;28;20047;-70
2022/03/03 03:31:51;;;;;;;124.47;53.00;;;-6.50;99.90;;;;;;5116099;28;20069;-70
2022/03/03 03:34:16;;;;;;;137.77;54.50;;;-6.60;99.90;;;;;;5115981;28;20043;-68
2022/03/03 03:36:42;;;;;;;133.27;56.87;;;-6.60;99.90;;;;;;5114460;28;20016;-69
2022/03/03 03:39:07;;;;;;;113.80;52.73;;;-6.70;99.90;;;;;;5104115;28;20054;-68
2022/03/03 03:41:33;;;;;;;115.63;48.20;;;-6.70;99.90;;;;;;5108549;28;20422;-68
2022/03/03 03:43:58;;;;;;;115.40;47.90;;;-6.70;99.90;;;;;;5105072;28;20093;-68
2022/03/03 03:46:24;;;;;;;106.70;48.57;;;-6.70;99.90;;;;;;5115806;28;20046;-70
2022/03/03 03:48:50;;;;;;;108.47;48.57;;;-6.80;99.90;;;;;;5115472;28;20024;-68
2022/03/03 03:51:16;;;;;;;135.47;59.10;;;-6.80;99.90;;;;;;5115695;28;20041;-68
2022/03/03 03:53:41;;;;;;;123.17;51.90;;;-6.80;99.90;;;;;;5114369;28;20100;-68
2022/03/03 03:56:08;;;;;;;144.20;57.33;;;-6.90;99.90;;;;;;5115591;28;20016;-68
2022/03/03 03:58:33;;;;;;;119.13;55.10;;;-6.90;99.90;;;;;;5114321;28;20019;-69
2022/03/03 04:00:59;;;;;;;129.47;55.77;;;-6.90;99.90;;;;;;5114306;28;20024;-69
2022/03/03 04:03:25;;;;;;;122.83;53.70;;;-6.90;99.90;;;;;;5115409;28;20447;-68
2022/03/03 04:05:50;;;;;;;131.70;55.53;;;-6.90;99.90;;;;;;5114338;27;20022;-71
2022/03/03 04:08:16;;;;;;;127.83;56.23;;;-6.90;99.90;;;;;;5115380;28;20073;-69
2022/03/03 04:10:42;;;;;;;135.93;58.03;;;-6.90;99.90;;;;;;5115355;27;20019;-68
2022/03/03 04:13:08;;;;;;;119.43;56.67;;;-6.90;99.90;;;;;;5113887;28;20024;-70
2022/03/03 04:15:34;;;;;;;123.40;53.03;;;-6.90;99.90;;;;;;5115256;28;20469;-70
2022/03/03 04:17:59;;;;;;;132.27;52.20;;;-6.90;99.90;;;;;;5115189;28;20029;-69
2022/03/03 04:20:27;;;;;;;120.60;49.10;;;-7.00;99.90;;;;;;5113946;28;20389;-68
2022/03/03 04:22:52;;;;;;;104.53;46.37;;;-7.10;99.90;;;;;;5115380;28;20376;-68
2022/03/03 04:25:18;;;;;;;125.30;51.63;;;-7.10;99.90;;;;;;5115018;28;20133;-68
2022/03/03 04:27:43;;;;;;;127.03;51.33;;;-7.10;99.90;;;;;;5115004;28;20019;-68
2022/03/03 04:30:11;;;;;;;123.80;48.53;;;-7.10;99.90;;;;;;5114981;28;20059;-71
2022/03/03 04:32:38;;;;;;;129.67;51.30;;;-7.20;99.90;;;;;;5113496;28;20396;-68
2022/03/03 04:35:04;;;;;;;111.27;49.60;;;-7.20;99.90;;;;;;5114888;28;20027;-68
2022/03/03 04:37:30;;;;;;;118.10;47.83;;;-7.20;99.90;;;;;;5114737;28;20020;-69
2022/03/03 04:39:55;;;;;;;134.93;59.10;;;-7.30;99.90;;;;;;5114898;28;20023;-69
2022/03/03 04:42:21;;;;;;;123.13;51.73;;;-7.30;99.90;;;;;;5114705;28;20100;-70
2022/03/03 04:44:46;;;;;;;119.40;50.90;;;-7.30;99.90;;;;;;5114678;28;20039;-70
2022/03/03 04:47:12;;;;;;;108.10;50.70;;;-7.40;99.90;;;;;;5114484;28;20023;-68
2022/03/03 04:49:37;;;;;;;122.10;50.50;;;-7.40;99.90;;;;;;5114031;28;20055;-68
2022/03/03 04:52:03;;;;;;;113.40;50.50;;;-7.40;99.90;;;;;;5114104;28;20051;-68
2022/03/03 04:54:29;;;;;;;117.20;52.77;;;-7.40;99.90;;;;;;5114409;27;20050;-68
2022/03/03 04:56:55;;;;;;;123.63;50.80;;;-7.50;99.90;;;;;;5114491;28;20024;-69
2022/03/03 04:59:25;;;;;;;130.80;54.10;;;-7.50;99.90;;;;;;5114555;28;20054;-70
2022/03/03 05:01:52;;;;;;;166.83;67.23;;;-7.50;99.90;;;;;;5113010;28;20106;-70
2022/03/03 05:04:18;;;;;;;224.60;85.00;;;-7.50;99.90;;;;;;5114351;28;20024;-68
2022/03/03 05:06:45;;;;;;;207.27;83.83;;;-7.50;99.90;;;;;;5112933;28;20020;-69
2022/03/03 05:09:11;;;;;;;278.30;95.33;;;-7.50;99.90;;;;;;5114131;28;20435;-70
2022/03/03 05:11:36;;;;;;;273.43;94.20;;;-7.50;99.90;;;;;;5112855;28;20026;-69
2022/03/03 05:14:02;;;;;;;395.87;129.43;;;-7.50;99.90;;;;;;5112724;28;20032;-70
2022/03/03 05:16:27;;;;;;;324.63;107.53;;;-7.60;99.90;;;;;;5112735;28;20461;-70
2022/03/03 05:18:53;;;;;;;219.33;77.93;;;-7.60;99.90;;;;;;5112692;28;20419;-68
2022/03/03 05:21:19;;;;;;;143.50;60.90;;;-7.70;99.90;;;;;;5113991;28;20023;-70
2022/03/03 05:23:45;;;;;;;171.63;69.63;;;-7.70;99.90;;;;;;5113970;28;20532;-70
2022/03/03 05:26:10;;;;;;;170.83;63.60;;;-7.70;99.90;;;;;;5112715;28;20048;-72
2022/03/03 05:28:36;;;;;;;145.10;55.90;;;-7.70;99.90;;;;;;5112576;28;20020;-70
2022/03/03 05:31:02;;;;;;;118.10;52.30;;;-7.80;99.90;;;;;;5113862;28;20020;-72
2022/03/03 05:33:27;;;;;;;127.30;55.40;;;-7.80;99.90;;;;;;5112471;28;20594;-70
2022/03/03 05:35:59;;;;;;;114.47;50.93;;;-7.80;99.90;;;;;;5113826;28;20026;-71
2022/03/03 05:38:28;;;;;;;120.10;50.30;;;-7.80;99.90;;;;;;5113812;28;20027;-69
2022/03/03 05:40:54;;;;;;;130.90;54.63;;;-7.80;99.90;;;;;;5113706;28;20016;-72
2022/03/03 05:43:20;;;;;;;129.37;57.40;;;-7.80;99.90;;;;;;5112422;28;20034;-72
2022/03/03 05:45:47;;;;;;;157.97;65.80;;;-7.80;99.90;;;;;;5113699;28;20116;-71
2022/03/03 05:48:17;;;;;;;190.97;74.87;;;-7.70;99.90;;;;;;5112288;28;20016;-70
2022/03/03 05:50:43;;;;;;;198.50;75.90;;;-7.70;99.90;;;;;;5104900;28;20040;-70
2022/03/03 05:53:08;;;;;;;174.73;66.07;;;-7.70;99.90;;;;;;5092535;28;20088;-70
2022/03/03 05:55:41;;;;;;;156.17;61.27;;;-7.70;99.90;;;;;;5093345;28;20538;-70
2022/03/03 05:58:11;;;;;;;152.52;61.65;;;-7.70;99.90;;;;;;5091905;28;20381;-70
2022/03/03 06:00:37;;;;;;;149.83;58.63;;;-7.60;99.90;;;;;;5101787;28;20031;-70
2022/03/03 06:03:03;;;;;;;149.33;60.03;;;-7.60;99.90;;;;;;5115590;28;20031;-70
2022/03/03 06:05:29;;;;;;;122.07;51.83;;;-7.50;99.90;;;;;;5117763;27;20016;-73
2022/03/03 06:08:03;;;;;;;122.33;53.17;;;-7.50;99.90;;;;;;5117095;28;20023;-72
2022/03/03 06:10:32;;;;;;;161.40;61.40;;;-7.50;99.90;;;;;;5117605;28;20023;-72
2022/03/03 06:13:24;;;;;;;173.20;63.33;;;-7.40;99.90;;;;;;5117652;28;20031;-71
2022/03/03 06:15:51;;;;;;;171.93;67.93;;;-7.30;99.90;;;;;;5117687;28;20023;-72
2022/03/03 06:18:19;;;;;;;153.20;61.97;;;-7.30;99.90;;;;;;5117582;28;20461;-67
2022/03/03 06:20:45;;;;;;;146.90;55.30;;;-7.20;99.90;;;;;;5116771;28;20020;-68
2022/03/03 06:23:13;;;;;;;137.83;51.27;;;-7.20;99.90;;;;;;5117364;28;20024;-68
2022/03/03 06:25:39;;;;;;;129.87;54.57;;;-7.10;99.90;;;;;;5117322;28;20051;-68
2022/03/03 06:28:05;;;;;;;215.43;91.47;;;-7.10;99.90;;;;;;5117243;28;20019;-68
2022/03/03 06:30:32;;;;;;;531.00;198.03;;;-7.00;99.90;;;;;;5117148;28;20102;-68
2022/03/03 06:32:58;;;;;;;486.27;188.37;;;-6.90;99.90;;;;;;5115749;28;20019;-69
2022/03/03 06:35:24;;;;;;;429.13;153.90;;;-6.70;99.90;;;;;;5115681;28;20073;-68
2022/03/03 06:37:49;;;;;;;416.07;149.10;;;-6.50;99.90;;;;;;5116704;28;20095;-68
2022/03/03 06:40:15;;;;;;;370.67;139.30;;;-6.40;99.90;;;;;;5115807;28;20047;-70
2022/03/03 06:42:40;;;;;;;413.43;147.50;;;-6.20;99.90;;;;;;5108949;28;20059;-70
2022/03/03 06:45:06;;;;;;;408.10;147.23;;;-6.00;99.90;;;;;;5117006;28;20051;-71
2022/03/03 06:47:34;;;;;;;360.33;129.63;;;-5.80;99.90;;;;;;5115176;28;20061;-68
2022/03/03 06:49:59;;;;;;;322.33;115.13;;;-5.50;99.90;;;;;;5115612;28;20048;-68
2022/03/03 06:52:26;;;;;;;289.27;110.60;;;-5.30;99.90;;;;;;5114343;28;20434;-69
2022/03/03 06:54:53;;;;;;;271.30;101.37;;;-5.20;99.90;;;;;;5115338;28;20508;-69
2022/03/03 06:57:21;;;;;;;255.70;109.07;;;-5.00;99.90;;;;;;5116692;28;20141;-69
2022/03/03 06:59:47;;;;;;;228.13;95.27;;;-4.70;99.90;;;;;;5116647;28;20366;-70
2022/03/03 07:02:14;;;;;;;221.93;96.30;;;-4.60;99.90;;;;;;5113395;28;20031;-69
2022/03/03 07:04:40;;;;;;;219.23;83.37;;;-4.40;99.90;;;;;;5104430;28;20039;-68
2022/03/03 07:07:06;;;;;;;180.50;78.90;;;-4.30;99.90;;;;;;5107401;28;20011;-68
2022/03/03 07:09:32;;;;;;;173.80;80.18;;;-4.10;99.90;;;;;;5116479;28;20020;-70
2022/03/03 07:11:59;;;;;;;161.63;73.07;;;-3.90;99.90;;;;;;5113885;28;20110;-70
2022/03/03 07:14:25;;;;;;;164.95;73.60;;;-3.70;99.90;;;;;;5113336;28;20028;-68
2022/03/03 07:16:59;;;;;;;173.70;79.43;;;-3.60;99.90;;;;;;5110039;28;20059;-70
2022/03/03 07:19:37;;;;;;;152.43;70.55;;;-3.40;99.90;;;;;;5105570;28;20047;-69
2022/03/03 07:22:20;;;;;;;157.95;70.20;;;-3.20;99.90;;;;;;5095309;28;20036;-71
2022/03/03 07:25:02;;;;;;;157.10;71.30;;;-3.00;99.90;;;;;;5099760;28;20078;-71
2022/03/03 07:27:28;;;;;;;149.15;69.18;;;-2.80;98.60;;;;;;5095719;28;20035;-69
2022/03/03 07:29:59;;;;;;;149.40;65.78;;;-2.50;96.70;;;;;;5093876;28;20024;-71
2022/03/03 07:32:54;;;;;;;149.73;68.20;;;-2.30;95.60;;;;;;5095611;28;20046;-69
2022/03/03 07:35:24;;;;;;;147.77;66.75;;;-2.10;93.70;;;;;;5079276;28;20486;-69
2022/03/03 07:37:58;;;;;;;144.20;69.22;;;-1.90;92.40;;;;;;5094604;28;20020;-69
2022/03/03 07:40:27;;;;;;;146.32;66.40;;;-1.70;91.70;;;;;;5095638;28;20023;-70
2022/03/03 07:42:54;;;;;;;142.77;69.93;;;-1.40;91.00;;;;;;5094144;28;20104;-68
2022/03/03 07:45:20;;;;;;;143.63;64.72;;;-1.10;90.30;;;;;;5095295;28;20048;-70
2022/03/03 07:47:49;;;;;;;128.18;63.05;;;-0.90;89.20;;;;;;5093846;28;20020;-69
2022/03/03 07:50:15;;;;;;;130.55;60.67;;;-0.70;87.00;;;;;;5093233;28;20051;-70
2022/03/03 07:52:45;;;;;;;136.70;63.45;;;-0.60;84.00;;;;;;5093415;28;20385;-70
2022/03/03 07:55:12;;;;;;;134.75;63.38;;;-0.40;83.20;;;;;;5093252;28;20047;-70
2022/03/03 07:57:52;;;;;;;138.55;60.58;;;-0.30;82.60;;;;;;5093250;28;20450;-70
2022/03/03 08:00:19;;;;;;;123.97;53.75;;;-0.20;79.60;;;;;;5093187;28;20035;-69
2022/03/03 08:02:47;;;;;;;111.75;53.03;;;0.00;77.80;;;;;;5093007;28;20099;-68
2022/03/03 08:05:15;;;;;;;103.07;51.15;;;0.10;76.20;;;;;;5095083;28;20032;-70
2022/03/03 08:07:43;;;;;;;114.70;53.17;;;0.20;76.40;;;;;;5095085;28;20074;-71
2022/03/03 08:10:09;;;;;;;97.25;50.25;;;0.20;75.50;;;;;;5095118;28;20048;-70
2022/03/03 08:12:37;;;;;;;99.20;46.35;;;0.10;75.30;;;;;;5095044;28;20039;-69
2022/03/03 08:15:03;;;;;;;56.00;28.75;;;0.00;74.90;;;;;;5093697;28;20032;-69
2022/03/03 08:17:30;;;;;;;114.07;49.03;;;-0.10;70.90;;;;;;5094913;28;20154;-69
2022/03/03 08:19:56;;;;;;;76.38;37.08;;;-0.20;70.10;;;;;;5095001;28;20024;-70
2022/03/03 08:22:24;;;;;;;78.18;37.58;;;-0.30;70.00;;;;;;5093608;28;20028;-70
2022/03/03 08:24:58;;;;;;;81.28;40.90;;;-0.20;70.20;;;;;;5094660;28;20028;-70
2022/03/03 08:27:26;;;;;;;104.85;50.97;;;-0.10;71.50;;;;;;5094702;28;20024;-69
2022/03/03 08:29:53;;;;;;;100.80;45.35;;;0.00;71.60;;;;;;5094697;28;20377;-69
2022/03/03 08:32:20;;;;;;;90.22;43.03;;;0.10;70.60;;;;;;5093336;28;20443;-69
2022/03/03 08:35:16;;;;;;;92.82;42.13;;;0.20;70.00;;;;;;5094354;28;20063;-71
2022/03/03 08:37:45;;;;;;;80.50;40.47;;;0.40;69.10;;;;;;5094551;28;20016;-70
2022/03/03 08:40:15;;;;;;;81.47;42.90;;;0.60;69.20;;;;;;5094411;28;20474;-69
2022/03/03 08:42:46;;;;;;;101.50;46.78;;;0.70;68.00;;;;;;5094397;28;20028;-70
2022/03/03 08:45:12;;;;;;;60.53;30.70;;;0.90;65.70;;;;;;5094310;28;20050;-69
2022/03/03 08:47:41;;;;;;;69.15;34.00;;;1.00;64.30;;;;;;5094266;28;20129;-69
2022/03/03 08:50:15;;;;;;;57.63;30.00;;;1.10;63.70;;;;;;5094106;28;20047;-69
2022/03/03 08:52:43;;;;;;;63.33;31.63;;;1.20;61.90;;;;;;5094396;28;20020;-70
2022/03/03 08:55:11;;;;;;;60.78;31.67;;;1.30;61.80;;;;;;5094122;28;20090;-69
2022/03/03 08:57:39;;;;;;;62.95;33.40;;;1.40;61.60;;;;;;5094039;28;20039;-69
2022/03/03 09:00:08;;;;;;;61.45;30.63;;;1.60;61.70;;;;;;5094097;28;20020;-69
2022/03/03 09:02:34;;;;;;;196.10;169.27;;;1.70;60.80;;;;;;5094110;28;20043;-69
2022/03/03 09:05:01;;;;;;;80.75;57.08;;;1.70;60.30;;;;;;5092968;28;20386;-70
2022/03/03 09:07:26;;;;;;;115.70;82.35;;;1.80;59.30;;;;;;5093932;28;20584;-69
2022/03/03 09:09:52;;;;;;;137.35;93.05;;;1.80;59.00;;;;;;5093982;28;20107;-71
2022/03/03 09:12:17;;;;;;;91.85;60.17;;;1.90;58.50;;;;;;5093891;28;20020;-70
2022/03/03 09:14:43;;;;;;;56.80;35.20;;;2.00;57.90;;;;;;5092438;28;20401;-70
2022/03/03 09:17:08;;;;;;;147.43;120.43;;;2.10;56.50;;;;;;5093661;28;20449;-71
2022/03/03 09:19:34;;;;;;;89.90;60.38;;;2.30;57.20;;;;;;5093787;28;20065;-70
2022/03/03 09:22:00;;;;;;;40.80;24.67;;;2.50;56.30;;;;;;5093758;28;20022;-71
2022/03/03 09:24:26;;;;;;;58.85;32.40;;;2.40;55.10;;;;;;5093793;28;20114;-70
2022/03/03 09:26:54;;;;;;;53.17;29.40;;;2.40;55.80;;;;;;5093658;28;20028;-70
2022/03/03 09:29:19;;;;;;;415.52;371.08;;;2.30;54.80;;;;;;5093567;28;20088;-69
2022/03/03 09:31:45;;;;;;;88.20;67.95;;;2.30;54.90;;;;;;5093476;28;20067;-71
2022/03/03 09:34:11;;;;;;;44.25;27.90;;;2.40;54.40;;;;;;5093494;28;20036;-69
2022/03/03 09:36:37;;;;;;;39.22;21.92;;;2.60;54.60;;;;;;5093171;28;20057;-71
2022/03/03 09:39:03;;;;;;;66.00;37.75;;;2.70;53.80;;;;;;5092220;28;20024;-69
2022/03/03 09:41:29;;;;;;;36.88;21.60;;;2.90;53.90;;;;;;5093378;28;20024;-71
2022/03/03 09:43:56;;;;;;;65.38;41.65;;;2.70;53.10;;;;;;5093417;28;20157;-70
2022/03/03 09:46:22;;;;;;;49.47;22.58;;;2.60;52.80;;;;;;5093388;28;20028;-69
2022/03/03 09:48:48;;;;;;;48.90;29.58;;;2.70;53.00;;;;;;5093329;28;20054;-69
2022/03/03 09:51:14;;;;;;;56.40;26.02;;;2.70;52.50;;;;;;5093347;28;20123;-69
2022/03/03 09:53:41;;;;;;;51.85;26.30;;;2.70;52.00;;;;;;5093320;28;20028;-70
2022/03/03 09:56:07;;;;;;;55.30;28.92;;;2.70;52.80;;;;;;5093269;28;20034;-69
2022/03/03 09:58:33;;;;;;;70.60;40.00;;;2.70;53.00;;;;;;5093361;28;20028;-69
2022/03/03 10:00:59;;;;;;;47.58;25.80;;;2.70;53.40;;;;;;5093262;28;20073;-69
2022/03/03 10:03:32;;;;;;;49.15;27.10;;;3.00;53.50;;;;;;5093167;28;20020;-70
2022/03/03 10:06:00;;;;;;;;;;;2.90;52.40;;;;;;5093742;28;20070;-69
2022/03/03 10:08:27;;;;;;;51.42;25.05;;;3.10;53.10;;;;;;5092013;28;19904;-70
2022/03/03 10:10:54;;;;;;;50.72;24.75;;;2.90;52.90;;;;;;5093231;28;20465;-69
2022/03/03 10:13:21;;;;;;;50.70;25.67;;;2.80;52.50;;;;;;5092975;28;20064;-70
2022/03/03 10:15:59;;;;;;;61.35;34.25;;;2.80;53.10;;;;;;5091776;28;20035;-70
2022/03/03 10:18:25;;;;;;;48.58;27.60;;;2.90;53.10;;;;;;5093142;28;20024;-69
2022/03/03 10:21:00;;;;;;;46.95;24.02;;;3.00;52.80;;;;;;5091847;28;20019;-69
2022/03/03 10:23:32;;;;;;;42.85;21.45;;;2.90;52.20;;;;;;5091802;28;20025;-69
2022/03/03 10:25:59;;;;;;;75.35;48.60;;;2.80;51.30;;;;;;5093109;28;20016;-71
2022/03/03 10:28:28;;;;;;;48.50;24.80;;;2.90;51.50;;;;;;5091731;28;20038;-70
2022/03/03 10:30:58;;;;;;;44.28;22.52;;;3.00;51.10;;;;;;5091819;28;20020;-71
2022/03/03 10:33:30;;;;;;;45.65;24.60;;;3.00;50.70;;;;;;5092918;28;20090;-70
2022/03/03 10:36:10;;;;;;;63.03;33.07;;;3.10;50.80;;;;;;5093075;28;20056;-70
2022/03/03 10:38:54;;;;;;;57.75;28.20;;;3.10;50.90;;;;;;5092976;28;20020;-70
2022/03/03 10:41:42;;;;;;;50.63;28.15;;;3.10;51.60;;;;;;5092885;28;20473;-69
2022/03/03 10:44:13;;;;;;;52.92;27.65;;;3.20;51.50;;;;;;5092852;28;20024;-69
2022/03/03 10:46:58;;;;;;;47.80;28.92;;;3.10;51.30;;;;;;5092894;28;20038;-71
2022/03/03 10:49:25;;;;;;;144.80;109.60;;;3.30;51.80;;;;;;5093485;28;20475;-69
2022/03/03 10:51:51;;;;;;;88.60;52.00;;;3.20;50.80;;;;;;5096647;28;20069;-70
2022/03/03 10:54:16;;;;;;;47.20;25.77;;;3.40;51.20;;;;;;5095308;28;20039;-70
2022/03/03 10:56:51;;;;;;;44.10;25.48;;;3.40;50.10;;;;;;5096493;28;20537;-70
2022/03/03 10:59:24;;;;;;;45.92;25.17;;;3.30;50.10;;;;;;5095245;28;20028;-70
2022/03/03 11:01:52;;;;;;;47.90;24.58;;;3.30;50.10;;;;;;5096260;28;20031;-70
2022/03/03 11:04:20;;;;;;;46.85;26.05;;;3.50;51.10;;;;;;5096325;28;20016;-71
2022/03/03 11:06:49;;;;;;;55.58;29.77;;;3.40;50.30;;;;;;5096424;28;20016;-69
2022/03/03 11:09:16;;;;;;;41.10;23.67;;;3.50;50.40;;;;;;5096302;28;20024;-71
2022/03/03 11:11:42;;;;;;;41.42;23.17;;;3.50;49.90;;;;;;5096210;28;20024;-71
2022/03/03 11:14:08;;;;;;;41.70;22.60;;;3.40;49.40;;;;;;5096134;28;20042;-69
2022/03/03 11:16:34;;;;;;;66.35;43.92;;;3.60;49.50;;;;;;5094938;28;20020;-71
2022/03/03 11:19:00;;;;;;;44.85;23.92;;;3.60;49.40;;;;;;5094774;28;20028;-70
2022/03/03 11:21:26;;;;;;;35.85;20.10;;;3.70;48.90;;;;;;5095866;28;20039;-69
2022/03/03 11:23:56;;;;;;;43.60;22.98;;;3.60;48.00;;;;;;5095823;28;20398;-70
2022/03/03 11:26:31;;;;;;;38.63;22.65;;;3.60;48.30;;;;;;5095787;28;20380;-71
2022/03/03 11:28:59;;;;;;;38.90;23.75;;;3.60;49.50;;;;;;5094584;28;20133;-70
2022/03/03 11:31:31;;;;;;;40.58;22.58;;;3.60;49.20;;;;;;5095876;28;20089;-71
2022/03/03 11:34:18;;;;;;;41.58;23.17;;;3.70;49.20;;;;;;5095710;28;20034;-70
2022/03/03 11:36:45;;;;;;;45.38;22.17;;;3.80;48.70;;;;;;5095631;28;20028;-70
2022/03/03 11:39:30;;;;;;;42.58;22.75;;;3.90;48.90;;;;;;5095557;28;20112;-71
2022/03/03 11:41:56;;;;;;;43.40;25.10;;;4.00;48.60;;;;;;5095517;28;20413;-70
2022/03/03 11:44:31;;;;;;;40.47;22.73;;;4.10;48.70;;;;;;5095626;28;20077;-71
2022/03/03 11:46:58;;;;;;;44.45;24.58;;;4.30;48.70;;;;;;5095720;28;20020;-69
2022/03/03 11:49:29;;;;;;;40.90;22.73;;;4.30;48.20;;;;;;5095361;28;20399;-71
2022/03/03 11:51:57;;;;;;;147.75;69.07;;;4.30;48.00;;;;;;5095328;28;20016;-69
2022/03/03 11:54:29;;;;;;;39.72;23.67;;;4.40;48.20;;;;;;5095390;28;20058;-69
2022/03/03 11:57:03;;;;;;;63.08;29.80;;;4.40;47.30;;;;;;5094119;28;20066;-69
2022/03/03 11:59:48;;;;;;;321.30;120.55;;;4.40;47.10;;;;;;5094886;28;20024;-70
2022/03/03 12:02:19;;;;;;;66.00;29.45;;;4.40;46.60;;;;;;5093871;28;20534;-70
2022/03/03 12:04:44;;;;;;;293.92;109.97;;;4.60;46.80;;;;;;5093845;28;20020;-71
2022/03/03 12:07:30;;;;;;;36.13;20.60;;;4.50;45.60;;;;;;5093912;28;20028;-71
2022/03/03 12:09:56;;;;;;;48.45;25.42;;;4.40;45.20;;;;;;5093629;28;20508;-70
2022/03/03 12:12:23;;;;;;;31.52;18.80;;;4.40;45.60;;;;;;5093708;28;20020;-71
2022/03/03 12:14:54;;;;;;;38.20;20.13;;;4.40;45.70;;;;;;5094858;28;20024;-71
2022/03/03 12:17:42;;;;;;;37.15;19.65;;;4.40;45.50;;;;;;5094981;28;20103;-70
2022/03/03 12:20:38;;;;;;;32.58;17.08;;;4.40;45.80;;;;;;5095187;28;20358;-69
2022/03/03 12:23:05;;;;;;;32.63;18.77;;;4.40;45.30;;;;;;5080842;28;20028;-69
2022/03/03 12:25:50;;;;;;;36.78;19.75;;;4.30;45.10;;;;;;5094764;28;20095;-71
2022/03/03 12:28:23;;;;;;;38.60;20.48;;;4.30;45.10;;;;;;5087791;28;20032;-69
2022/03/03 12:30:50;;;;;;;32.40;19.73;;;4.40;45.00;;;;;;5094756;28;20103;-70